sensor_id;sensor_type;location;lat;lon;timestamp;P1;durP1;ratioP1;P2;durP2;ratioP2
13847;SDS011;6994;49.752;6.094;2023-05-19T00:00:12;7.18;;;3.40;;
13847;SDS011;6994;49.752;6.094;2023-05-19T00:02:40;8.48;;;3.90;;
13847;SDS011;6994;49.752;6.094;2023-05-19T00:05:08;6.25;;;3.58;;
13847;SDS011;6994;49.752;6.094;2023-05-19T00:07:35;3.70;;;3.40;;
13847;SDS011;6994;49.752;6.094;2023-05-19T00:10:02;5.57;;;3.62;;
13847;SDS011;6994;49.752;6.094;2023-05-19T00:12:29;6.05;;;4.55;;
13847;SDS011;6994;49.752;6.094;2023-05-19T00:14:57;6.32;;;4.30;;
13847;SDS011;6994;49.752;6.094;2023-05-19T00:17:24;7.87;;;4.47;;
13847;SDS011;6994;49.752;6.094;2023-05-19T00:19:51;5.95;;;3.87;;
13847;SDS011;6994;49.752;6.094;2023-05-19T00:22:19;10.05;;;4.40;;
13847;SDS011;6994;49.752;6.094;2023-05-19T00:24:47;7.15;;;3.78;;
13847;SDS011;6994;49.752;6.094;2023-05-19T00:27:15;6.75;;;3.42;;
13847;SDS011;6994;49.752;6.094;2023-05-19T00:29:42;5.37;;;3.17;;
13847;SDS011;6994;49.752;6.094;2023-05-19T00:32:09;4.30;;;3.30;;
13847;SDS011;6994;49.752;6.094;2023-05-19T00:34:37;4.85;;;3.35;;
13847;SDS011;6994;49.752;6.094;2023-05-19T00:37:04;3.60;;;3.20;;
13847;SDS011;6994;49.752;6.094;2023-05-19T00:39:32;6.97;;;3.45;;
13847;SDS011;6994;49.752;6.094;2023-05-19T00:41:59;5.97;;;2.78;;
13847;SDS011;6994;49.752;6.094;2023-05-19T00:44:26;3.90;;;2.80;;
13847;SDS011;6994;49.752;6.094;2023-05-19T00:46:53;5.55;;;2.85;;
13847;SDS011;6994;49.752;6.094;2023-05-19T00:49:20;5.62;;;3.22;;
13847;SDS011;6994;49.752;6.094;2023-05-19T00:51:48;11.65;;;3.17;;
13847;SDS011;6994;49.752;6.094;2023-05-19T00:54:15;6.37;;;3.47;;
13847;SDS011;6994;49.752;6.094;2023-05-19T00:56:42;3.87;;;3.05;;
13847;SDS011;6994;49.752;6.094;2023-05-19T00:59:09;5.37;;;3.25;;
13847;SDS011;6994;49.752;6.094;2023-05-19T01:01:37;6.82;;;3.67;;
13847;SDS011;6994;49.752;6.094;2023-05-19T01:04:04;11.07;;;4.68;;
13847;SDS011;6994;49.752;6.094;2023-05-19T01:06:31;5.22;;;3.95;;
13847;SDS011;6994;49.752;6.094;2023-05-19T01:08:58;7.15;;;4.22;;
13847;SDS011;6994;49.752;6.094;2023-05-19T01:11:25;8.82;;;4.57;;
13847;SDS011;6994;49.752;6.094;2023-05-19T01:13:53;5.55;;;4.15;;
13847;SDS011;6994;49.752;6.094;2023-05-19T01:16:34;7.10;;;4.47;;
13847;SDS011;6994;49.752;6.094;2023-05-19T01:24:37;5.40;;;4.40;;
13847;SDS011;6994;49.752;6.094;2023-05-19T01:30:15;5.18;;;3.80;;
13847;SDS011;6994;49.752;6.094;2023-05-19T01:32:39;6.22;;;4.03;;
13847;SDS011;6994;49.752;6.094;2023-05-19T01:35:05;5.82;;;4.30;;
13847;SDS011;6994;49.752;6.094;2023-05-19T01:37:32;6.10;;;3.90;;
13847;SDS011;6994;49.752;6.094;2023-05-19T01:40:00;7.95;;;4.75;;
13847;SDS011;6994;49.752;6.094;2023-05-19T01:42:27;7.82;;;4.18;;
13847;SDS011;6994;49.752;6.094;2023-05-19T01:44:54;6.45;;;3.95;;
13847;SDS011;6994;49.752;6.094;2023-05-19T01:47:21;5.90;;;3.92;;
13847;SDS011;6994;49.752;6.094;2023-05-19T01:49:49;8.63;;;4.10;;
13847;SDS011;6994;49.752;6.094;2023-05-19T01:52:16;9.00;;;3.58;;
13847;SDS011;6994;49.752;6.094;2023-05-19T01:54:43;5.70;;;4.00;;
13847;SDS011;6994;49.752;6.094;2023-05-19T01:59:45;6.87;;;4.43;;
13847;SDS011;6994;49.752;6.094;2023-05-19T02:02:12;4.97;;;4.43;;
13847;SDS011;6994;49.752;6.094;2023-05-19T02:04:42;9.60;;;3.83;;
13847;SDS011;6994;49.752;6.094;2023-05-19T02:09:52;11.02;;;3.80;;
13847;SDS011;6994;49.752;6.094;2023-05-19T02:12:27;8.18;;;4.87;;
13847;SDS011;6994;49.752;6.094;2023-05-19T02:15:10;10.02;;;4.22;;
13847;SDS011;6994;49.752;6.094;2023-05-19T02:17:40;9.23;;;4.35;;
13847;SDS011;6994;49.752;6.094;2023-05-19T02:20:07;5.05;;;3.90;;
13847;SDS011;6994;49.752;6.094;2023-05-19T02:22:34;7.78;;;3.95;;
13847;SDS011;6994;49.752;6.094;2023-05-19T02:25:02;8.30;;;4.70;;
13847;SDS011;6994;49.752;6.094;2023-05-19T02:27:30;7.15;;;3.87;;
13847;SDS011;6994;49.752;6.094;2023-05-19T02:29:58;7.10;;;3.85;;
13847;SDS011;6994;49.752;6.094;2023-05-19T02:32:25;5.15;;;3.80;;
13847;SDS011;6994;49.752;6.094;2023-05-19T02:34:53;9.15;;;3.78;;
13847;SDS011;6994;49.752;6.094;2023-05-19T02:37:21;4.57;;;3.47;;
13847;SDS011;6994;49.752;6.094;2023-05-19T02:39:49;4.12;;;3.37;;
13847;SDS011;6994;49.752;6.094;2023-05-19T02:42:16;4.28;;;3.45;;
13847;SDS011;6994;49.752;6.094;2023-05-19T02:44:43;9.95;;;3.42;;
13847;SDS011;6994;49.752;6.094;2023-05-19T02:47:10;7.30;;;3.40;;
13847;SDS011;6994;49.752;6.094;2023-05-19T02:49:37;8.40;;;3.53;;
13847;SDS011;6994;49.752;6.094;2023-05-19T02:52:05;6.50;;;3.50;;
13847;SDS011;6994;49.752;6.094;2023-05-19T02:54:32;5.25;;;3.58;;
13847;SDS011;6994;49.752;6.094;2023-05-19T02:56:59;6.90;;;3.08;;
13847;SDS011;6994;49.752;6.094;2023-05-19T02:59:26;7.53;;;3.60;;
13847;SDS011;6994;49.752;6.094;2023-05-19T03:01:54;7.45;;;3.75;;
13847;SDS011;6994;49.752;6.094;2023-05-19T03:04:21;5.82;;;2.75;;
13847;SDS011;6994;49.752;6.094;2023-05-19T03:06:48;7.07;;;3.37;;
13847;SDS011;6994;49.752;6.094;2023-05-19T03:09:15;4.15;;;3.15;;
13847;SDS011;6994;49.752;6.094;2023-05-19T03:11:42;5.03;;;3.53;;
13847;SDS011;6994;49.752;6.094;2023-05-19T03:14:09;5.82;;;2.85;;
13847;SDS011;6994;49.752;6.094;2023-05-19T03:16:37;5.22;;;3.40;;
13847;SDS011;6994;49.752;6.094;2023-05-19T03:19:04;7.22;;;2.80;;
13847;SDS011;6994;49.752;6.094;2023-05-19T03:21:31;6.22;;;3.55;;
13847;SDS011;6994;49.752;6.094;2023-05-19T03:23:58;3.78;;;3.25;;
13847;SDS011;6994;49.752;6.094;2023-05-19T03:26:25;5.82;;;3.53;;
13847;SDS011;6994;49.752;6.094;2023-05-19T03:28:53;6.43;;;3.62;;
13847;SDS011;6994;49.752;6.094;2023-05-19T03:31:20;5.20;;;3.60;;
13847;SDS011;6994;49.752;6.094;2023-05-19T03:33:47;6.93;;;3.72;;
13847;SDS011;6994;49.752;6.094;2023-05-19T03:36:14;8.68;;;3.55;;
13847;SDS011;6994;49.752;6.094;2023-05-19T03:38:41;7.50;;;3.62;;
13847;SDS011;6994;49.752;6.094;2023-05-19T03:41:09;12.07;;;4.30;;
13847;SDS011;6994;49.752;6.094;2023-05-19T03:43:36;3.60;;;3.30;;
13847;SDS011;6994;49.752;6.094;2023-05-19T03:46:03;7.55;;;4.85;;
13847;SDS011;6994;49.752;6.094;2023-05-19T03:48:30;3.97;;;3.10;;
13847;SDS011;6994;49.752;6.094;2023-05-19T03:50:57;5.22;;;3.33;;
13847;SDS011;6994;49.752;6.094;2023-05-19T03:53:25;7.37;;;3.95;;
13847;SDS011;6994;49.752;6.094;2023-05-19T03:55:52;8.02;;;3.15;;
13847;SDS011;6994;49.752;6.094;2023-05-19T03:58:19;5.90;;;2.72;;
13847;SDS011;6994;49.752;6.094;2023-05-19T04:00:46;5.53;;;3.03;;
13847;SDS011;6994;49.752;6.094;2023-05-19T04:03:13;6.62;;;3.35;;
13847;SDS011;6994;49.752;6.094;2023-05-19T04:05:41;4.03;;;3.28;;
13847;SDS011;6994;49.752;6.094;2023-05-19T04:08:08;10.07;;;2.90;;
13847;SDS011;6994;49.752;6.094;2023-05-19T04:10:35;5.68;;;3.50;;
13847;SDS011;6994;49.752;6.094;2023-05-19T04:13:02;5.68;;;3.50;;
13847;SDS011;6994;49.752;6.094;2023-05-19T04:15:29;9.73;;;3.30;;
13847;SDS011;6994;49.752;6.094;2023-05-19T04:17:57;5.15;;;3.17;;
13847;SDS011;6994;49.752;6.094;2023-05-19T04:20:24;10.25;;;4.00;;
13847;SDS011;6994;49.752;6.094;2023-05-19T04:22:51;7.00;;;3.87;;
13847;SDS011;6994;49.752;6.094;2023-05-19T04:25:18;3.62;;;3.22;;
13847;SDS011;6994;49.752;6.094;2023-05-19T04:27:45;6.50;;;3.28;;
13847;SDS011;6994;49.752;6.094;2023-05-19T04:30:13;4.55;;;3.67;;
13847;SDS011;6994;49.752;6.094;2023-05-19T04:32:40;6.55;;;4.28;;
13847;SDS011;6994;49.752;6.094;2023-05-19T04:35:07;5.47;;;3.30;;
13847;SDS011;6994;49.752;6.094;2023-05-19T04:37:34;4.68;;;3.53;;
13847;SDS011;6994;49.752;6.094;2023-05-19T04:40:01;5.28;;;3.50;;
13847;SDS011;6994;49.752;6.094;2023-05-19T04:42:29;7.65;;;3.62;;
13847;SDS011;6994;49.752;6.094;2023-05-19T04:44:56;5.93;;;3.60;;
13847;SDS011;6994;49.752;6.094;2023-05-19T04:47:23;4.12;;;3.22;;
13847;SDS011;6994;49.752;6.094;2023-05-19T04:49:50;5.18;;;3.33;;
13847;SDS011;6994;49.752;6.094;2023-05-19T04:52:17;3.62;;;3.10;;
13847;SDS011;6994;49.752;6.094;2023-05-19T04:54:45;6.53;;;3.60;;
13847;SDS011;6994;49.752;6.094;2023-05-19T04:57:12;5.82;;;3.60;;
13847;SDS011;6994;49.752;6.094;2023-05-19T04:59:39;5.25;;;3.10;;
13847;SDS011;6994;49.752;6.094;2023-05-19T05:02:06;12.30;;;3.67;;
13847;SDS011;6994;49.752;6.094;2023-05-19T05:04:34;6.62;;;3.92;;
13847;SDS011;6994;49.752;6.094;2023-05-19T05:07:01;3.67;;;3.00;;
13847;SDS011;6994;49.752;6.094;2023-05-19T05:09:28;5.93;;;3.35;;
13847;SDS011;6994;49.752;6.094;2023-05-19T05:11:55;5.25;;;3.42;;
13847;SDS011;6994;49.752;6.094;2023-05-19T05:14:22;4.30;;;3.10;;
13847;SDS011;6994;49.752;6.094;2023-05-19T05:16:50;6.70;;;3.05;;
13847;SDS011;6994;49.752;6.094;2023-05-19T05:19:18;5.97;;;2.45;;
13847;SDS011;6994;49.752;6.094;2023-05-19T05:21:45;3.97;;;3.15;;
13847;SDS011;6994;49.752;6.094;2023-05-19T05:24:12;3.70;;;2.78;;
13847;SDS011;6994;49.752;6.094;2023-05-19T05:26:39;4.03;;;2.85;;
13847;SDS011;6994;49.752;6.094;2023-05-19T05:29:07;4.22;;;2.45;;
13847;SDS011;6994;49.752;6.094;2023-05-19T05:31:35;4.70;;;3.08;;
13847;SDS011;6994;49.752;6.094;2023-05-19T05:34:02;5.32;;;3.60;;
13847;SDS011;6994;49.752;6.094;2023-05-19T05:36:29;4.90;;;3.75;;
13847;SDS011;6994;49.752;6.094;2023-05-19T05:38:56;6.37;;;2.92;;
13847;SDS011;6994;49.752;6.094;2023-05-19T05:41:23;8.70;;;2.97;;
13847;SDS011;6994;49.752;6.094;2023-05-19T05:43:51;5.28;;;3.10;;
13847;SDS011;6994;49.752;6.094;2023-05-19T05:46:18;3.85;;;2.95;;
13847;SDS011;6994;49.752;6.094;2023-05-19T05:48:45;7.43;;;3.20;;
13847;SDS011;6994;49.752;6.094;2023-05-19T05:51:12;5.22;;;2.75;;
13847;SDS011;6994;49.752;6.094;2023-05-19T05:53:40;4.72;;;2.70;;
13847;SDS011;6994;49.752;6.094;2023-05-19T05:56:07;3.62;;;2.08;;
13847;SDS011;6994;49.752;6.094;2023-05-19T05:58:35;5.30;;;2.37;;
13847;SDS011;6994;49.752;6.094;2023-05-19T06:01:02;3.67;;;2.10;;
13847;SDS011;6994;49.752;6.094;2023-05-19T06:03:29;6.37;;;1.85;;
13847;SDS011;6994;49.752;6.094;2023-05-19T06:05:57;2.33;;;1.60;;
13847;SDS011;6994;49.752;6.094;2023-05-19T06:08:25;8.20;;;1.65;;
13847;SDS011;6994;49.752;6.094;2023-05-19T06:10:53;4.93;;;1.60;;
13847;SDS011;6994;49.752;6.094;2023-05-19T06:13:21;2.35;;;1.75;;
13847;SDS011;6994;49.752;6.094;2023-05-19T06:15:49;2.70;;;1.23;;
13847;SDS011;6994;49.752;6.094;2023-05-19T06:18:15;5.25;;;1.98;;
13847;SDS011;6994;49.752;6.094;2023-05-19T06:20:43;2.97;;;1.48;;
13847;SDS011;6994;49.752;6.094;2023-05-19T06:23:10;3.05;;;1.73;;
13847;SDS011;6994;49.752;6.094;2023-05-19T06:25:37;2.62;;;1.70;;
13847;SDS011;6994;49.752;6.094;2023-05-19T06:28:04;4.57;;;1.85;;
13847;SDS011;6994;49.752;6.094;2023-05-19T06:30:31;4.07;;;1.65;;
13847;SDS011;6994;49.752;6.094;2023-05-19T06:32:59;3.80;;;1.60;;
13847;SDS011;6994;49.752;6.094;2023-05-19T06:35:26;1.48;;;1.35;;
13847;SDS011;6994;49.752;6.094;2023-05-19T06:37:53;3.60;;;1.20;;
13847;SDS011;6994;49.752;6.094;2023-05-19T06:40:21;5.18;;;1.95;;
13847;SDS011;6994;49.752;6.094;2023-05-19T06:42:47;3.53;;;1.77;;
13847;SDS011;6994;49.752;6.094;2023-05-19T06:45:15;7.30;;;2.20;;
13847;SDS011;6994;49.752;6.094;2023-05-19T06:47:43;4.57;;;1.45;;
13847;SDS011;6994;49.752;6.094;2023-05-19T06:50:11;4.95;;;1.52;;
13847;SDS011;6994;49.752;6.094;2023-05-19T06:52:38;4.80;;;1.50;;
13847;SDS011;6994;49.752;6.094;2023-05-19T06:55:06;5.87;;;1.62;;
13847;SDS011;6994;49.752;6.094;2023-05-19T06:57:33;1.67;;;1.10;;
13847;SDS011;6994;49.752;6.094;2023-05-19T07:00:00;3.20;;;1.10;;
13847;SDS011;6994;49.752;6.094;2023-05-19T07:02:27;2.95;;;1.08;;
13847;SDS011;6994;49.752;6.094;2023-05-19T07:04:54;4.72;;;1.50;;
13847;SDS011;6994;49.752;6.094;2023-05-19T07:07:22;2.58;;;1.10;;
13847;SDS011;6994;49.752;6.094;2023-05-19T07:09:49;1.65;;;1.02;;
13847;SDS011;6994;49.752;6.094;2023-05-19T07:12:16;2.67;;;0.90;;
13847;SDS011;6994;49.752;6.094;2023-05-19T07:14:43;3.45;;;1.00;;
13847;SDS011;6994;49.752;6.094;2023-05-19T07:17:11;5.50;;;1.77;;
13847;SDS011;6994;49.752;6.094;2023-05-19T07:19:41;1.83;;;1.20;;
13847;SDS011;6994;49.752;6.094;2023-05-19T07:22:08;4.53;;;1.10;;
13847;SDS011;6994;49.752;6.094;2023-05-19T07:24:36;1.65;;;1.30;;
13847;SDS011;6994;49.752;6.094;2023-05-19T07:27:03;2.33;;;1.02;;
13847;SDS011;6994;49.752;6.094;2023-05-19T07:29:30;2.92;;;1.12;;
13847;SDS011;6994;49.752;6.094;2023-05-19T07:31:57;2.60;;;1.48;;
13847;SDS011;6994;49.752;6.094;2023-05-19T07:34:25;3.58;;;1.20;;
13847;SDS011;6994;49.752;6.094;2023-05-19T07:36:52;4.40;;;1.35;;
13847;SDS011;6994;49.752;6.094;2023-05-19T07:39:19;7.22;;;1.55;;
13847;SDS011;6994;49.752;6.094;2023-05-19T07:41:46;4.60;;;1.33;;
13847;SDS011;6994;49.752;6.094;2023-05-19T07:44:17;5.18;;;1.50;;
13847;SDS011;6994;49.752;6.094;2023-05-19T07:46:45;5.15;;;1.40;;
13847;SDS011;6994;49.752;6.094;2023-05-19T07:49:13;2.65;;;1.05;;
13847;SDS011;6994;49.752;6.094;2023-05-19T07:51:41;3.20;;;1.02;;
13847;SDS011;6994;49.752;6.094;2023-05-19T07:54:08;5.05;;;1.35;;
13847;SDS011;6994;49.752;6.094;2023-05-19T07:56:35;3.60;;;1.10;;
13847;SDS011;6994;49.752;6.094;2023-05-19T07:59:02;4.20;;;1.50;;
13847;SDS011;6994;49.752;6.094;2023-05-19T08:01:30;3.45;;;1.05;;
13847;SDS011;6994;49.752;6.094;2023-05-19T08:03:57;2.95;;;1.15;;
13847;SDS011;6994;49.752;6.094;2023-05-19T08:06:24;1.95;;;1.02;;
13847;SDS011;6994;49.752;6.094;2023-05-19T08:08:51;3.17;;;0.98;;
13847;SDS011;6994;49.752;6.094;2023-05-19T08:11:18;3.95;;;1.90;;
13847;SDS011;6994;49.752;6.094;2023-05-19T08:13:45;2.95;;;1.20;;
13847;SDS011;6994;49.752;6.094;2023-05-19T08:16:14;2.20;;;1.08;;
13847;SDS011;6994;49.752;6.094;2023-05-19T08:18:41;4.80;;;1.48;;
13847;SDS011;6994;49.752;6.094;2023-05-19T08:21:09;2.28;;;1.08;;
13847;SDS011;6994;49.752;6.094;2023-05-19T08:23:37;4.12;;;1.30;;
13847;SDS011;6994;49.752;6.094;2023-05-19T08:26:04;2.97;;;1.50;;
13847;SDS011;6994;49.752;6.094;2023-05-19T08:28:31;4.90;;;1.33;;
13847;SDS011;6994;49.752;6.094;2023-05-19T08:30:58;3.15;;;0.98;;
13847;SDS011;6994;49.752;6.094;2023-05-19T08:33:25;3.47;;;1.00;;
13847;SDS011;6994;49.752;6.094;2023-05-19T08:35:54;5.15;;;1.42;;
13847;SDS011;6994;49.752;6.094;2023-05-19T08:38:20;3.60;;;1.85;;
13847;SDS011;6994;49.752;6.094;2023-05-19T08:40:47;1.42;;;0.90;;
13847;SDS011;6994;49.752;6.094;2023-05-19T08:43:14;4.72;;;1.10;;
13847;SDS011;6994;49.752;6.094;2023-05-19T08:45:42;2.00;;;1.08;;
13847;SDS011;6994;49.752;6.094;2023-05-19T08:48:09;1.17;;;0.90;;
13847;SDS011;6994;49.752;6.094;2023-05-19T08:50:38;3.12;;;1.02;;
13847;SDS011;6994;49.752;6.094;2023-05-19T08:53:17;1.75;;;1.12;;
13847;SDS011;6994;49.752;6.094;2023-05-19T08:58:27;1.75;;;0.95;;
13847;SDS011;6994;49.752;6.094;2023-05-19T09:00:54;2.95;;;1.30;;
13847;SDS011;6994;49.752;6.094;2023-05-19T09:03:22;1.87;;;0.88;;
13847;SDS011;6994;49.752;6.094;2023-05-19T09:05:49;1.95;;;1.02;;
13847;SDS011;6994;49.752;6.094;2023-05-19T09:08:16;2.80;;;1.25;;
13847;SDS011;6994;49.752;6.094;2023-05-19T09:10:44;3.20;;;1.42;;
13847;SDS011;6994;49.752;6.094;2023-05-19T09:13:11;4.18;;;1.20;;
13847;SDS011;6994;49.752;6.094;2023-05-19T09:15:38;3.37;;;1.30;;
13847;SDS011;6994;49.752;6.094;2023-05-19T09:18:07;2.37;;;1.42;;
13847;SDS011;6994;49.752;6.094;2023-05-19T09:20:36;3.70;;;1.80;;
13847;SDS011;6994;49.752;6.094;2023-05-19T09:23:05;5.18;;;1.85;;
13847;SDS011;6994;49.752;6.094;2023-05-19T09:25:32;2.90;;;0.82;;
13847;SDS011;6994;49.752;6.094;2023-05-19T09:28:00;3.75;;;1.35;;
13847;SDS011;6994;49.752;6.094;2023-05-19T09:30:27;1.08;;;0.98;;
13847;SDS011;6994;49.752;6.094;2023-05-19T09:32:54;5.28;;;1.50;;
13847;SDS011;6994;49.752;6.094;2023-05-19T09:35:22;1.45;;;0.82;;
13847;SDS011;6994;49.752;6.094;2023-05-19T09:37:49;2.37;;;1.30;;
13847;SDS011;6994;49.752;6.094;2023-05-19T09:40:16;3.85;;;1.35;;
13847;SDS011;6994;49.752;6.094;2023-05-19T09:42:43;2.17;;;1.35;;
13847;SDS011;6994;49.752;6.094;2023-05-19T09:45:11;2.67;;;1.17;;
13847;SDS011;6994;49.752;6.094;2023-05-19T09:47:39;2.47;;;1.27;;
13847;SDS011;6994;49.752;6.094;2023-05-19T09:50:09;7.78;;;1.50;;
13847;SDS011;6994;49.752;6.094;2023-05-19T09:52:36;3.33;;;1.40;;
13847;SDS011;6994;49.752;6.094;2023-05-19T09:55:09;2.90;;;1.10;;
13847;SDS011;6994;49.752;6.094;2023-05-19T09:57:36;2.72;;;1.55;;
13847;SDS011;6994;49.752;6.094;2023-05-19T10:00:06;4.95;;;1.40;;
13847;SDS011;6994;49.752;6.094;2023-05-19T10:02:40;2.53;;;1.02;;
13847;SDS011;6994;49.752;6.094;2023-05-19T10:05:08;4.03;;;1.42;;
13847;SDS011;6994;49.752;6.094;2023-05-19T10:07:35;2.55;;;1.10;;
13847;SDS011;6994;49.752;6.094;2023-05-19T10:10:02;1.15;;;0.95;;
13847;SDS011;6994;49.752;6.094;2023-05-19T10:12:29;3.17;;;1.20;;
13847;SDS011;6994;49.752;6.094;2023-05-19T10:14:57;3.72;;;1.58;;
13847;SDS011;6994;49.752;6.094;2023-05-19T10:17:24;3.67;;;1.42;;
13847;SDS011;6994;49.752;6.094;2023-05-19T10:19:51;4.87;;;1.27;;
13847;SDS011;6994;49.752;6.094;2023-05-19T10:22:18;2.85;;;1.02;;
13847;SDS011;6994;49.752;6.094;2023-05-19T10:24:45;1.67;;;1.12;;
13847;SDS011;6994;49.752;6.094;2023-05-19T10:27:13;1.92;;;0.98;;
13847;SDS011;6994;49.752;6.094;2023-05-19T10:29:42;3.53;;;1.55;;
13847;SDS011;6994;49.752;6.094;2023-05-19T10:32:13;1.77;;;0.95;;
13847;SDS011;6994;49.752;6.094;2023-05-19T10:39:47;2.70;;;1.40;;
13847;SDS011;6994;49.752;6.094;2023-05-19T10:42:28;4.97;;;1.45;;
13847;SDS011;6994;49.752;6.094;2023-05-19T10:45:06;1.00;;;0.82;;
13847;SDS011;6994;49.752;6.094;2023-05-19T10:47:35;4.03;;;1.30;;
13847;SDS011;6994;49.752;6.094;2023-05-19T10:50:03;2.95;;;1.17;;
13847;SDS011;6994;49.752;6.094;2023-05-19T10:52:30;5.45;;;1.48;;
13847;SDS011;6994;49.752;6.094;2023-05-19T10:54:57;2.20;;;1.30;;
13847;SDS011;6994;49.752;6.094;2023-05-19T10:57:25;3.30;;;1.30;;
13847;SDS011;6994;49.752;6.094;2023-05-19T10:59:54;2.60;;;1.67;;
13847;SDS011;6994;49.752;6.094;2023-05-19T11:02:38;1.17;;;0.90;;
13847;SDS011;6994;49.752;6.094;2023-05-19T11:05:12;5.45;;;1.20;;
13847;SDS011;6994;49.752;6.094;2023-05-19T11:07:54;1.33;;;0.90;;
13847;SDS011;6994;49.752;6.094;2023-05-19T11:10:09;3.87;;;1.73;;
13847;SDS011;6994;49.752;6.094;2023-05-19T11:12:43;2.47;;;1.30;;
13847;SDS011;6994;49.752;6.094;2023-05-19T11:15:13;2.78;;;1.33;;
13847;SDS011;6994;49.752;6.094;2023-05-19T11:17:40;3.90;;;1.40;;
13847;SDS011;6994;49.752;6.094;2023-05-19T11:20:07;2.28;;;1.27;;
13847;SDS011;6994;49.752;6.094;2023-05-19T11:22:34;1.75;;;1.05;;
13847;SDS011;6994;49.752;6.094;2023-05-19T11:25:01;2.10;;;1.00;;
13847;SDS011;6994;49.752;6.094;2023-05-19T11:27:32;2.08;;;1.48;;
13847;SDS011;6994;49.752;6.094;2023-05-19T11:29:59;3.20;;;1.67;;
13847;SDS011;6994;49.752;6.094;2023-05-19T11:32:27;4.60;;;1.15;;
13847;SDS011;6994;49.752;6.094;2023-05-19T11:34:54;1.75;;;1.10;;
13847;SDS011;6994;49.752;6.094;2023-05-19T11:37:21;1.73;;;1.00;;
13847;SDS011;6994;49.752;6.094;2023-05-19T11:39:48;3.65;;;1.20;;
13847;SDS011;6994;49.752;6.094;2023-05-19T11:42:16;2.08;;;1.70;;
13847;SDS011;6994;49.752;6.094;2023-05-19T11:44:43;1.65;;;1.35;;
13847;SDS011;6994;49.752;6.094;2023-05-19T11:47:10;2.00;;;1.15;;
13847;SDS011;6994;49.752;6.094;2023-05-19T11:49:44;1.85;;;1.17;;
13847;SDS011;6994;49.752;6.094;2023-05-19T11:52:11;3.20;;;1.87;;
13847;SDS011;6994;49.752;6.094;2023-05-19T11:54:39;3.80;;;1.33;;
13847;SDS011;6994;49.752;6.094;2023-05-19T11:57:07;3.08;;;1.80;;
13847;SDS011;6994;49.752;6.094;2023-05-19T11:59:36;3.10;;;1.20;;
13847;SDS011;6994;49.752;6.094;2023-05-19T12:02:14;2.15;;;1.52;;
13847;SDS011;6994;49.752;6.094;2023-05-19T12:04:39;3.92;;;1.67;;
13847;SDS011;6994;49.752;6.094;2023-05-19T12:07:06;2.58;;;1.70;;
13847;SDS011;6994;49.752;6.094;2023-05-19T12:09:33;2.35;;;1.48;;
13847;SDS011;6994;49.752;6.094;2023-05-19T12:12:00;3.03;;;1.35;;
13847;SDS011;6994;49.752;6.094;2023-05-19T12:14:28;1.62;;;1.25;;
13847;SDS011;6994;49.752;6.094;2023-05-19T12:16:55;1.83;;;1.60;;
13847;SDS011;6994;49.752;6.094;2023-05-19T12:19:22;2.60;;;1.45;;
13847;SDS011;6994;49.752;6.094;2023-05-19T12:21:49;1.52;;;1.20;;
13847;SDS011;6994;49.752;6.094;2023-05-19T12:24:17;4.55;;;1.67;;
13847;SDS011;6994;49.752;6.094;2023-05-19T12:26:43;2.03;;;1.37;;
13847;SDS011;6994;49.752;6.094;2023-05-19T12:29:12;3.80;;;1.60;;
13847;SDS011;6994;49.752;6.094;2023-05-19T12:31:38;3.67;;;1.30;;
13847;SDS011;6994;49.752;6.094;2023-05-19T12:34:06;3.53;;;1.30;;
13847;SDS011;6994;49.752;6.094;2023-05-19T12:36:33;2.00;;;1.37;;
13847;SDS011;6994;49.752;6.094;2023-05-19T12:39:00;1.95;;;1.42;;
13847;SDS011;6994;49.752;6.094;2023-05-19T12:41:27;3.12;;;1.60;;
13847;SDS011;6994;49.752;6.094;2023-05-19T12:43:55;3.05;;;1.60;;
13847;SDS011;6994;49.752;6.094;2023-05-19T12:46:22;4.68;;;1.83;;
13847;SDS011;6994;49.752;6.094;2023-05-19T12:48:49;1.37;;;1.27;;
13847;SDS011;6994;49.752;6.094;2023-05-19T12:51:20;1.25;;;1.10;;
13847;SDS011;6994;49.752;6.094;2023-05-19T12:53:44;3.28;;;1.30;;
13847;SDS011;6994;49.752;6.094;2023-05-19T12:56:13;2.08;;;0.90;;
13847;SDS011;6994;49.752;6.094;2023-05-19T12:58:40;1.45;;;1.30;;
13847;SDS011;6994;49.752;6.094;2023-05-19T13:01:13;3.80;;;1.12;;
13847;SDS011;6994;49.752;6.094;2023-05-19T13:03:43;1.92;;;1.30;;
13847;SDS011;6994;49.752;6.094;2023-05-19T13:06:11;2.03;;;1.27;;
13847;SDS011;6994;49.752;6.094;2023-05-19T13:08:40;2.47;;;1.25;;
13847;SDS011;6994;49.752;6.094;2023-05-19T13:11:05;4.85;;;1.73;;
13847;SDS011;6994;49.752;6.094;2023-05-19T13:13:33;3.35;;;1.40;;
13847;SDS011;6994;49.752;6.094;2023-05-19T13:16:00;3.30;;;1.48;;
13847;SDS011;6994;49.752;6.094;2023-05-19T13:18:27;1.80;;;1.35;;
13847;SDS011;6994;49.752;6.094;2023-05-19T13:20:54;4.25;;;2.55;;
13847;SDS011;6994;49.752;6.094;2023-05-19T13:23:22;4.03;;;1.60;;
13847;SDS011;6994;49.752;6.094;2023-05-19T13:25:49;1.62;;;1.37;;
13847;SDS011;6994;49.752;6.094;2023-05-19T13:28:16;5.20;;;1.55;;
13847;SDS011;6994;49.752;6.094;2023-05-19T13:30:44;2.20;;;1.42;;
13847;SDS011;6994;49.752;6.094;2023-05-19T13:33:12;2.17;;;1.35;;
13847;SDS011;6994;49.752;6.094;2023-05-19T13:35:39;1.87;;;1.30;;
13847;SDS011;6994;49.752;6.094;2023-05-19T13:38:07;2.20;;;1.73;;
13847;SDS011;6994;49.752;6.094;2023-05-19T13:40:33;1.98;;;1.30;;
13847;SDS011;6994;49.752;6.094;2023-05-19T13:43:01;2.22;;;1.15;;
13847;SDS011;6994;49.752;6.094;2023-05-19T13:45:28;2.22;;;1.37;;
13847;SDS011;6994;49.752;6.094;2023-05-19T13:47:55;1.73;;;1.42;;
13847;SDS011;6994;49.752;6.094;2023-05-19T13:50:22;2.20;;;1.40;;
13847;SDS011;6994;49.752;6.094;2023-05-19T13:52:49;3.92;;;1.60;;
13847;SDS011;6994;49.752;6.094;2023-05-19T13:55:17;2.87;;;1.48;;
13847;SDS011;6994;49.752;6.094;2023-05-19T13:57:44;2.70;;;1.58;;
13847;SDS011;6994;49.752;6.094;2023-05-19T14:00:11;2.08;;;1.40;;
13847;SDS011;6994;49.752;6.094;2023-05-19T14:02:38;2.15;;;1.37;;
13847;SDS011;6994;49.752;6.094;2023-05-19T14:05:06;2.25;;;1.35;;
13847;SDS011;6994;49.752;6.094;2023-05-19T14:07:33;2.00;;;1.42;;
13847;SDS011;6994;49.752;6.094;2023-05-19T14:10:00;1.15;;;1.00;;
13847;SDS011;6994;49.752;6.094;2023-05-19T14:12:27;1.65;;;1.40;;
13847;SDS011;6994;49.752;6.094;2023-05-19T14:14:54;1.75;;;1.40;;
13847;SDS011;6994;49.752;6.094;2023-05-19T14:17:22;2.42;;;1.80;;
13847;SDS011;6994;49.752;6.094;2023-05-19T14:19:49;2.17;;;1.33;;
13847;SDS011;6994;49.752;6.094;2023-05-19T14:22:16;2.35;;;1.45;;
13847;SDS011;6994;49.752;6.094;2023-05-19T14:24:43;1.90;;;1.15;;
13847;SDS011;6994;49.752;6.094;2023-05-19T14:27:10;1.98;;;1.10;;
13847;SDS011;6994;49.752;6.094;2023-05-19T14:29:38;1.70;;;1.17;;
13847;SDS011;6994;49.752;6.094;2023-05-19T14:32:06;3.25;;;1.40;;
13847;SDS011;6994;49.752;6.094;2023-05-19T14:34:34;1.60;;;1.50;;
13847;SDS011;6994;49.752;6.094;2023-05-19T14:37:01;1.83;;;1.58;;
13847;SDS011;6994;49.752;6.094;2023-05-19T14:39:29;1.90;;;1.23;;
13847;SDS011;6994;49.752;6.094;2023-05-19T14:41:56;1.70;;;1.60;;
13847;SDS011;6994;49.752;6.094;2023-05-19T14:44:23;3.35;;;1.73;;
13847;SDS011;6994;49.752;6.094;2023-05-19T14:46:50;2.53;;;1.50;;
13847;SDS011;6994;49.752;6.094;2023-05-19T14:49:18;2.62;;;1.48;;
13847;SDS011;6994;49.752;6.094;2023-05-19T14:51:45;1.70;;;1.45;;
13847;SDS011;6994;49.752;6.094;2023-05-19T14:54:12;1.73;;;1.12;;
13847;SDS011;6994;49.752;6.094;2023-05-19T14:56:39;1.80;;;1.35;;
13847;SDS011;6994;49.752;6.094;2023-05-19T14:59:06;3.58;;;1.58;;
13847;SDS011;6994;49.752;6.094;2023-05-19T15:01:34;3.53;;;1.40;;
13847;SDS011;6994;49.752;6.094;2023-05-19T15:04:01;1.27;;;1.10;;
13847;SDS011;6994;49.752;6.094;2023-05-19T15:06:28;2.75;;;1.52;;
13847;SDS011;6994;49.752;6.094;2023-05-19T15:08:55;1.80;;;1.30;;
13847;SDS011;6994;49.752;6.094;2023-05-19T15:11:22;3.20;;;1.20;;
13847;SDS011;6994;49.752;6.094;2023-05-19T15:13:50;1.75;;;1.00;;
13847;SDS011;6994;49.752;6.094;2023-05-19T15:16:17;6.50;;;1.15;;
13847;SDS011;6994;49.752;6.094;2023-05-19T15:18:44;1.52;;;1.20;;
13847;SDS011;6994;49.752;6.094;2023-05-19T15:21:11;1.58;;;1.05;;
13847;SDS011;6994;49.752;6.094;2023-05-19T15:23:38;2.45;;;1.40;;